createdAt,value
2022-10-13T00:06:41.815Z,3.60
2022-10-13T00:20:41.823Z,3.50
2022-10-13T00:34:41.956Z,3.60
2022-10-13T00:48:41.913Z,3.45
2022-10-13T01:02:41.945Z,3.25
2022-10-13T01:16:41.918Z,3.10
2022-10-13T01:30:41.925Z,3.15
2022-10-13T01:44:41.941Z,3.20
2022-10-13T01:58:41.930Z,3.00
2022-10-13T02:12:41.993Z,3.10
2022-10-13T02:26:42.015Z,3.00
2022-10-13T02:40:42.005Z,3.00
2022-10-13T02:54:42.046Z,2.80
2022-10-13T03:08:42.030Z,2.90
2022-10-13T03:22:44.888Z,3.00
2022-10-13T03:36:42.081Z,3.00
2022-10-13T03:50:42.083Z,2.90
2022-10-13T04:04:42.237Z,3.00
2022-10-13T04:18:44.612Z,2.90
2022-10-13T04:32:42.269Z,2.80
2022-10-13T04:46:42.265Z,2.90
2022-10-13T05:00:42.282Z,2.70
2022-10-13T05:14:42.301Z,2.70
2022-10-13T05:29:42.322Z,3.50
2022-10-13T05:44:42.306Z,3.20
2022-10-13T05:59:42.313Z,3.45
2022-10-13T06:14:42.342Z,3.40
2022-10-13T06:29:42.350Z,7.50
2022-10-13T06:44:42.346Z,7.70
2022-10-13T06:59:42.359Z,8.90
2022-10-13T07:14:43.671Z,9.30
2022-10-13T07:29:42.348Z,8.70
2022-10-13T07:44:42.351Z,9.30
2022-10-13T07:59:42.361Z,9.15
2022-10-13T08:14:42.503Z,8.20
2022-10-13T08:29:42.482Z,8.20
2022-10-13T08:45:36.081Z,7.80
2022-10-13T08:59:42.439Z,7.60
2022-10-13T09:14:42.446Z,7.20
2022-10-13T09:29:42.458Z,6.70
2022-10-13T09:44:42.452Z,6.60
2022-10-13T09:59:42.457Z,6.00
2022-10-13T10:14:42.474Z,6.00
2022-10-13T10:29:42.488Z,5.40
2022-10-13T10:44:24.101Z,5.60
2022-10-13T10:59:24.100Z,5.50
2022-10-13T11:14:24.093Z,5.10
2022-10-13T11:29:24.101Z,5.00
2022-10-13T11:44:24.205Z,4.70
2022-10-13T11:59:24.157Z,4.90
2022-10-13T12:14:24.176Z,4.30
2022-10-13T12:30:24.208Z,4.30
2022-10-13T12:45:24.213Z,4.10
2022-10-13T13:00:24.247Z,4.50
2022-10-13T13:15:24.814Z,4.20
2022-10-13T13:30:24.895Z,4.10
2022-10-13T13:45:25.009Z,3.90
2022-10-13T14:01:25.091Z,3.60
2022-10-13T14:16:25.133Z,4.00
2022-10-13T14:31:25.141Z,4.05
2022-10-13T14:46:25.145Z,3.90
2022-10-13T15:02:25.197Z,3.80
2022-10-13T15:17:25.477Z,3.90
2022-10-13T15:32:25.840Z,3.50
2022-10-13T15:47:25.565Z,3.55
2022-10-13T16:02:25.667Z,3.40
2022-10-13T16:18:25.712Z,3.40
2022-10-13T16:34:25.728Z,3.90
2022-10-13T16:49:25.741Z,4.10
2022-10-13T17:04:25.753Z,4.00
2022-10-13T17:18:25.754Z,4.20
2022-10-13T17:32:25.810Z,4.00
2022-10-13T17:46:36.014Z,3.90
2022-10-13T18:00:25.794Z,3.90
2022-10-13T18:14:25.916Z,4.10
2022-10-13T18:28:26.249Z,11.50
2022-10-13T18:42:26.221Z,10.70
2022-10-13T18:56:26.199Z,12.00
2022-10-13T19:10:26.216Z,11.70
2022-10-13T19:24:26.284Z,11.40
2022-10-13T19:38:26.510Z,11.20
2022-10-13T19:52:26.604Z,11.00
2022-10-13T20:06:26.576Z,10.10
2022-10-13T20:20:26.599Z,9.70
2022-10-13T20:34:26.609Z,9.50
2022-10-13T20:48:26.619Z,8.80
2022-10-13T21:02:26.736Z,8.10
2022-10-13T21:16:26.614Z,7.30
2022-10-13T21:30:26.631Z,7.30
2022-10-13T21:44:26.637Z,6.80
2022-10-13T21:58:26.656Z,6.70
2022-10-13T22:12:26.678Z,6.10
2022-10-13T22:26:26.736Z,5.50
2022-10-13T22:40:26.748Z,5.00
2022-10-13T22:54:26.734Z,4.60
2022-10-13T23:08:26.765Z,4.60
2022-10-13T23:22:26.779Z,4.30
2022-10-13T23:36:26.788Z,4.05
2022-10-13T23:50:26.842Z,4.45
